EZY149 EIDW-EGPH
Flight info
| Callsign | EZY149 |
|---|---|
| Flight time | 0h 41m |
| Altitude | 25000 |
| Route | ROTEV8E ROTEV P600 TUNSO |
| Aircraft | A20N/M-SDE2E3FGHIRWXY/LB1 |
Departure
| Time | 2026-04-23 19:38 |
|---|---|
| Airport | Dublin Airport (EIDW) |
Arrival
| Time | 2026-04-23 20:19 |
|---|---|
| Airport | Edinburgh Airport (EGPH) |
| Time | Latitude | Longitude | Altitude | Speed | Heading |
|---|---|---|---|---|---|
| 2026-04-23 19:17 | 53.43101 | -6.24894 | 211 ft | 0 kts | 185° |
| 2026-04-23 19:24 | 53.43105 | -6.24894 | 211 ft | 3 kts | 185° |
| 2026-04-23 19:25 | 53.43153 | -6.24886 | 213 ft | 4 kts | 195° |
| 2026-04-23 19:25 | 53.43190 | -6.24829 | 211 ft | 2 kts | 256° |
| 2026-04-23 19:29 | 53.43189 | -6.24871 | 211 ft | 6 kts | 275° |
| 2026-04-23 19:29 | 53.43221 | -6.25123 | 214 ft | 15 kts | 283° |
| 2026-04-23 19:30 | 53.43176 | -6.25518 | 217 ft | 16 kts | 242° |
| 2026-04-23 19:30 | 53.43155 | -6.25597 | 215 ft | 0 kts | 248° |
| 2026-04-23 19:31 | 53.43152 | -6.25609 | 213 ft | 6 kts | 248° |
| 2026-04-23 19:31 | 53.43118 | -6.25712 | 214 ft | 13 kts | 223° |
| 2026-04-23 19:31 | 53.42997 | -6.25687 | 212 ft | 25 kts | 158° |
| 2026-04-23 19:31 | 53.42833 | -6.25566 | 213 ft | 27 kts | 156° |
| 2026-04-23 19:32 | 53.42709 | -6.25479 | 212 ft | 0 kts | 160° |
| 2026-04-23 19:32 | 53.42663 | -6.25486 | 211 ft | 14 kts | 206° |
| 2026-04-23 19:32 | 53.42573 | -6.25626 | 211 ft | 13 kts | 226° |
| 2026-04-23 19:32 | 53.42491 | -6.25768 | 210 ft | 21 kts | 225° |
| 2026-04-23 19:33 | 53.42387 | -6.25946 | 211 ft | 23 kts | 227° |
| 2026-04-23 19:33 | 53.42290 | -6.26143 | 215 ft | 23 kts | 244° |
| 2026-04-23 19:33 | 53.42286 | -6.26684 | 211 ft | 24 kts | 276° |
| 2026-04-23 19:34 | 53.42300 | -6.26900 | 210 ft | 6 kts | 276° |
| 2026-04-23 19:34 | 53.42304 | -6.26995 | 210 ft | 16 kts | 274° |
| 2026-04-23 19:34 | 53.42330 | -6.27487 | 210 ft | 25 kts | 277° |
| 2026-04-23 19:35 | 53.42348 | -6.27773 | 210 ft | 23 kts | 275° |
| 2026-04-23 19:35 | 53.42361 | -6.28040 | 211 ft | 23 kts | 275° |
| 2026-04-23 19:35 | 53.42377 | -6.28327 | 215 ft | 26 kts | 276° |
| 2026-04-23 19:35 | 53.42395 | -6.28646 | 210 ft | 26 kts | 274° |
| 2026-04-23 19:36 | 53.42410 | -6.28903 | 218 ft | 16 kts | 275° |
| 2026-04-23 19:36 | 53.42395 | -6.29028 | 210 ft | 0 kts | 238° |
| 2026-04-23 19:36 | 53.42386 | -6.29045 | 214 ft | 8 kts | 224° |
| 2026-04-23 19:37 | 53.42299 | -6.29066 | 210 ft | 16 kts | 171° |
| 2026-04-23 19:37 | 53.42240 | -6.28930 | 209 ft | 16 kts | 94° |
| 2026-04-23 19:37 | 53.42217 | -6.28552 | 212 ft | 64 kts | 95° |
| 2026-04-23 19:37 | 53.42152 | -6.27344 | 212 ft | 143 kts | 94° |
| 2026-04-23 19:38 | 53.42059 | -6.25481 | 697 ft | 170 kts | 94° |
| 2026-04-23 19:38 | 53.41989 | -6.23433 | 1574 ft | 184 kts | 93° |
| 2026-04-23 19:38 | 53.41981 | -6.21120 | 2152 ft | 214 kts | 91° |
| 2026-04-23 19:38 | 53.42016 | -6.18486 | 2860 ft | 238 kts | 91° |
| 2026-04-23 19:39 | 53.41969 | -6.15624 | 3738 ft | 251 kts | 98° |
| 2026-04-23 19:39 | 53.41686 | -6.12715 | 4866 ft | 255 kts | 103° |
| 2026-04-23 19:39 | 53.41359 | -6.09769 | 5974 ft | 260 kts | 102° |
| 2026-04-23 19:39 | 53.41080 | -6.06757 | 7096 ft | 264 kts | 101° |
| 2026-04-23 19:40 | 53.40880 | -6.03651 | 8064 ft | 274 kts | 93° |
| 2026-04-23 19:40 | 53.41233 | -6.00449 | 8650 ft | 288 kts | 70° |
| 2026-04-23 19:40 | 53.42398 | -5.97686 | 9103 ft | 298 kts | 44° |
| 2026-04-23 19:40 | 53.44215 | -5.95960 | 9610 ft | 306 kts | 17° |
| 2026-04-23 19:41 | 53.46332 | -5.95640 | 10149 ft | 310 kts | 351° |
| 2026-04-23 19:41 | 53.48502 | -5.96506 | 10650 ft | 332 kts | 341° |
| 2026-04-23 19:41 | 53.50770 | -5.97726 | 11143 ft | 352 kts | 340° |
| 2026-04-23 19:41 | 53.53149 | -5.98924 | 11634 ft | 359 kts | 346° |
| 2026-04-23 19:42 | 53.55603 | -5.99800 | 12135 ft | 362 kts | 347° |
| 2026-04-23 19:42 | 53.58075 | -6.00636 | 12643 ft | 364 kts | 348° |
| 2026-04-23 19:42 | 53.60564 | -6.01452 | 13156 ft | 365 kts | 348° |
| 2026-04-23 19:42 | 53.63070 | -6.02262 | 13679 ft | 367 kts | 348° |
| 2026-04-23 19:43 | 53.65592 | -6.03074 | 14206 ft | 369 kts | 348° |
| 2026-04-23 19:43 | 53.68123 | -6.03890 | 14683 ft | 371 kts | 348° |
| 2026-04-23 19:43 | 53.70636 | -6.04701 | 15165 ft | 374 kts | 348° |
| 2026-04-23 19:43 | 53.73217 | -6.05347 | 15646 ft | 377 kts | 355° |
| 2026-04-23 19:44 | 53.75850 | -6.05477 | 16150 ft | 379 kts | 359° |
| 2026-04-23 19:44 | 53.78495 | -6.05577 | 16653 ft | 382 kts | 358° |
| 2026-04-23 19:44 | 53.81164 | -6.05691 | 17171 ft | 385 kts | 358° |
| 2026-04-23 19:44 | 53.83851 | -6.05811 | 17696 ft | 388 kts | 358° |
| 2026-04-23 19:45 | 53.86558 | -6.05930 | 18231 ft | 391 kts | 359° |
| 2026-04-23 19:45 | 53.89292 | -6.06049 | 18757 ft | 394 kts | 359° |
| 2026-04-23 19:45 | 53.92038 | -6.06168 | 19216 ft | 395 kts | 359° |
| 2026-04-23 19:45 | 53.94787 | -6.06285 | 19702 ft | 397 kts | 359° |
| 2026-04-23 19:46 | 53.97554 | -6.06403 | 20189 ft | 398 kts | 359° |
| 2026-04-23 19:46 | 54.00333 | -6.06444 | 20690 ft | 400 kts | 3° |
| 2026-04-23 19:46 | 54.03091 | -6.05775 | 21181 ft | 402 kts | 14° |
| 2026-04-23 19:46 | 54.05749 | -6.04275 | 21694 ft | 404 kts | 24° |
| 2026-04-23 19:47 | 54.08283 | -6.02207 | 22218 ft | 406 kts | 26° |
| 2026-04-23 19:47 | 54.10836 | -6.00114 | 22746 ft | 408 kts | 26° |
| 2026-04-23 19:47 | 54.13413 | -5.98011 | 23290 ft | 411 kts | 26° |
| 2026-04-23 19:47 | 54.16003 | -5.95894 | 23835 ft | 414 kts | 26° |
| 2026-04-23 19:48 | 54.18609 | -5.93760 | 24327 ft | 417 kts | 26° |
| 2026-04-23 19:48 | 54.21233 | -5.91604 | 24758 ft | 420 kts | 26° |
| 2026-04-23 19:48 | 54.23872 | -5.89433 | 24959 ft | 422 kts | 26° |
| 2026-04-23 19:48 | 54.26520 | -5.87251 | 25012 ft | 422 kts | 26° |
| 2026-04-23 19:49 | 54.29160 | -5.85071 | 25020 ft | 422 kts | 26° |
| 2026-04-23 19:49 | 54.31802 | -5.82887 | 25020 ft | 422 kts | 26° |
| 2026-04-23 19:49 | 54.34443 | -5.80700 | 25019 ft | 422 kts | 26° |
| 2026-04-23 19:49 | 54.37091 | -5.78505 | 25022 ft | 422 kts | 26° |
| 2026-04-23 19:50 | 54.39708 | -5.76332 | 25023 ft | 422 kts | 26° |
| 2026-04-23 19:50 | 54.42350 | -5.74135 | 25023 ft | 422 kts | 26° |
| 2026-04-23 19:50 | 54.44994 | -5.71933 | 25026 ft | 422 kts | 26° |
| 2026-04-23 19:50 | 54.47634 | -5.69731 | 25021 ft | 422 kts | 26° |
| 2026-04-23 19:51 | 54.50275 | -5.67526 | 25025 ft | 422 kts | 26° |
| 2026-04-23 19:51 | 54.52922 | -5.65312 | 25023 ft | 422 kts | 26° |
| 2026-04-23 19:51 | 54.55562 | -5.63101 | 25024 ft | 422 kts | 26° |
| 2026-04-23 19:51 | 54.58174 | -5.60789 | 25023 ft | 421 kts | 31° |
| 2026-04-23 19:52 | 54.60609 | -5.57979 | 25026 ft | 421 kts | 38° |
| 2026-04-23 19:52 | 54.62840 | -5.54713 | 25026 ft | 421 kts | 42° |
| 2026-04-23 19:52 | 54.65038 | -5.51374 | 25025 ft | 421 kts | 41° |
| 2026-04-23 19:52 | 54.67239 | -5.48055 | 25028 ft | 420 kts | 41° |
| 2026-04-23 19:53 | 54.69447 | -5.44725 | 25029 ft | 420 kts | 41° |
| 2026-04-23 19:53 | 54.71647 | -5.41395 | 25030 ft | 420 kts | 41° |
| 2026-04-23 19:53 | 54.73844 | -5.38059 | 25026 ft | 420 kts | 41° |
| 2026-04-23 19:53 | 54.76036 | -5.34722 | 25034 ft | 420 kts | 41° |
| 2026-04-23 19:54 | 54.78232 | -5.31372 | 25034 ft | 420 kts | 41° |
| 2026-04-23 19:54 | 54.80422 | -5.28027 | 25030 ft | 419 kts | 41° |
| 2026-04-23 19:54 | 54.82606 | -5.24684 | 25032 ft | 419 kts | 41° |
| 2026-04-23 19:54 | 54.84791 | -5.21335 | 25034 ft | 419 kts | 41° |
| 2026-04-23 19:55 | 54.86994 | -5.18014 | 25032 ft | 419 kts | 39° |
| 2026-04-23 19:55 | 54.89385 | -5.15125 | 25040 ft | 419 kts | 31° |
| 2026-04-23 19:55 | 54.91931 | -5.12800 | 25037 ft | 419 kts | 26° |
| 2026-04-23 19:55 | 54.94545 | -5.10559 | 25038 ft | 419 kts | 26° |
| 2026-04-23 19:56 | 54.97152 | -5.08298 | 25040 ft | 419 kts | 26° |
| 2026-04-23 19:56 | 54.99755 | -5.06033 | 25036 ft | 419 kts | 26° |
| 2026-04-23 19:56 | 55.02366 | -5.03761 | 24883 ft | 419 kts | 26° |
| 2026-04-23 19:56 | 55.04975 | -5.01490 | 24484 ft | 418 kts | 26° |
| 2026-04-23 19:57 | 55.07573 | -4.99219 | 24011 ft | 414 kts | 28° |
| 2026-04-23 19:57 | 55.09918 | -4.96384 | 23442 ft | 408 kts | 43° |
| 2026-04-23 19:57 | 55.11767 | -4.92690 | 22884 ft | 404 kts | 57° |
| 2026-04-23 19:57 | 55.13067 | -4.88365 | 22324 ft | 402 kts | 67° |
| 2026-04-23 19:58 | 55.14175 | -4.83887 | 21783 ft | 399 kts | 67° |
| 2026-04-23 19:58 | 55.15273 | -4.79467 | 21246 ft | 394 kts | 67° |
| 2026-04-23 19:58 | 55.16362 | -4.75080 | 20727 ft | 393 kts | 67° |
| 2026-04-23 19:58 | 55.17443 | -4.70717 | 20206 ft | 390 kts | 67° |
| 2026-04-23 19:59 | 55.18515 | -4.66383 | 19696 ft | 385 kts | 68° |
| 2026-04-23 19:59 | 55.19571 | -4.62100 | 19195 ft | 381 kts | 68° |
| 2026-04-23 19:59 | 55.20614 | -4.57865 | 18705 ft | 376 kts | 68° |
| 2026-04-23 19:59 | 55.21642 | -4.53674 | 18104 ft | 373 kts | 68° |
| 2026-04-23 20:00 | 55.22665 | -4.49498 | 17438 ft | 372 kts | 68° |
| 2026-04-23 20:00 | 55.23669 | -4.45392 | 16809 ft | 371 kts | 68° |
| 2026-04-23 20:00 | 55.24697 | -4.41182 | 16171 ft | 370 kts | 67° |
| 2026-04-23 20:00 | 55.25693 | -4.37093 | 15563 ft | 369 kts | 67° |
| 2026-04-23 20:01 | 55.26698 | -4.32964 | 14955 ft | 368 kts | 67° |
| 2026-04-23 20:01 | 55.27698 | -4.28844 | 14364 ft | 367 kts | 67° |
| 2026-04-23 20:01 | 55.28695 | -4.24731 | 13719 ft | 366 kts | 67° |
| 2026-04-23 20:01 | 55.29686 | -4.20638 | 13079 ft | 364 kts | 67° |
| 2026-04-23 20:02 | 55.30675 | -4.16546 | 12429 ft | 363 kts | 67° |
| 2026-04-23 20:02 | 55.31659 | -4.12466 | 11805 ft | 362 kts | 68° |
| 2026-04-23 20:02 | 55.32636 | -4.08408 | 11200 ft | 360 kts | 68° |
| 2026-04-23 20:02 | 55.33609 | -4.04354 | 10599 ft | 358 kts | 68° |
| 2026-04-23 20:03 | 55.34574 | -4.00327 | 9967 ft | 357 kts | 68° |
| 2026-04-23 20:03 | 55.35533 | -3.96319 | 9305 ft | 355 kts | 68° |
| 2026-04-23 20:03 | 55.36483 | -3.92335 | 8665 ft | 353 kts | 68° |
| 2026-04-23 20:03 | 55.37429 | -3.88368 | 8044 ft | 350 kts | 68° |
| 2026-04-23 20:04 | 55.38365 | -3.84431 | 7451 ft | 348 kts | 68° |
| 2026-04-23 20:04 | 55.39283 | -3.80564 | 7170 ft | 336 kts | 68° |
| 2026-04-23 20:04 | 55.40157 | -3.76882 | 7185 ft | 314 kts | 68° |
| 2026-04-23 20:04 | 55.40971 | -3.73447 | 7374 ft | 302 kts | 68° |
| 2026-04-23 20:05 | 55.41509 | -3.71168 | 7430 ft | 305 kts | 68° |
| 2026-04-23 20:05 | 55.42595 | -3.66562 | 7449 ft | 304 kts | 68° |
| 2026-04-23 20:05 | 55.43403 | -3.63128 | 7444 ft | 304 kts | 68° |
| 2026-04-23 20:05 | 55.44212 | -3.59688 | 7444 ft | 303 kts | 68° |
| 2026-04-23 20:06 | 55.45017 | -3.56258 | 7447 ft | 304 kts | 68° |
| 2026-04-23 20:06 | 55.45821 | -3.52829 | 7449 ft | 303 kts | 68° |
| 2026-04-23 20:06 | 55.46614 | -3.49378 | 7450 ft | 303 kts | 69° |
| 2026-04-23 20:06 | 55.47376 | -3.45916 | 7452 ft | 303 kts | 69° |
| 2026-04-23 20:07 | 55.48138 | -3.42498 | 7454 ft | 304 kts | 67° |
| 2026-04-23 20:07 | 55.49099 | -3.39177 | 7454 ft | 304 kts | 58° |
| 2026-04-23 20:07 | 55.50388 | -3.36232 | 7457 ft | 304 kts | 49° |
| 2026-04-23 20:07 | 55.51833 | -3.33510 | 7457 ft | 304 kts | 38° |
| 2026-04-23 20:08 | 55.53705 | -3.31858 | 7460 ft | 303 kts | 13° |
| 2026-04-23 20:08 | 55.55799 | -3.31562 | 7461 ft | 303 kts | 359° |
| 2026-04-23 20:08 | 55.57904 | -3.31566 | 7457 ft | 302 kts | 359° |
| 2026-04-23 20:08 | 55.60013 | -3.31571 | 7486 ft | 301 kts | 359° |
| 2026-04-23 20:09 | 55.62071 | -3.31573 | 7740 ft | 299 kts | 359° |
| 2026-04-23 20:09 | 55.64185 | -3.31606 | 8042 ft | 305 kts | 354° |
| 2026-04-23 20:09 | 55.66209 | -3.32627 | 8304 ft | 305 kts | 330° |
| 2026-04-23 20:09 | 55.67837 | -3.34967 | 8282 ft | 297 kts | 310° |
| 2026-04-23 20:10 | 55.68722 | -3.36784 | 8105 ft | 293 kts | 309° |
| 2026-04-23 20:10 | 55.70478 | -3.40451 | 7569 ft | 289 kts | 309° |
| 2026-04-23 20:10 | 55.71737 | -3.43198 | 7174 ft | 286 kts | 304° |
| 2026-04-23 20:10 | 55.72783 | -3.46192 | 6763 ft | 284 kts | 299° |
| 2026-04-23 20:11 | 55.73760 | -3.49194 | 6314 ft | 276 kts | 299° |
| 2026-04-23 20:11 | 55.74713 | -3.52099 | 5880 ft | 269 kts | 299° |
| 2026-04-23 20:11 | 55.75645 | -3.54927 | 5445 ft | 262 kts | 299° |
| 2026-04-23 20:11 | 55.76559 | -3.57681 | 5018 ft | 256 kts | 299° |
| 2026-04-23 20:12 | 55.77157 | -3.59480 | 4792 ft | 253 kts | 299° |
| 2026-04-23 20:12 | 55.78025 | -3.62090 | 4543 ft | 244 kts | 299° |
| 2026-04-23 20:12 | 55.78889 | -3.64701 | 4156 ft | 242 kts | 299° |
| 2026-04-23 20:12 | 55.79866 | -3.67044 | 4007 ft | 231 kts | 316° |
| 2026-04-23 20:13 | 55.81040 | -3.68863 | 3988 ft | 216 kts | 318° |
| 2026-04-23 20:13 | 55.82124 | -3.70554 | 3984 ft | 200 kts | 320° |
| 2026-04-23 20:13 | 55.83737 | -3.71440 | 3980 ft | 177 kts | 13° |
| 2026-04-23 20:13 | 55.84458 | -3.70873 | 3978 ft | 163 kts | 44° |
| 2026-04-23 20:14 | 55.85153 | -3.68987 | 4008 ft | 201 kts | 69° |
| 2026-04-23 20:14 | 55.85533 | -3.66701 | 3809 ft | 182 kts | 78° |
| 2026-04-23 20:14 | 55.85842 | -3.64701 | 3556 ft | 158 kts | 72° |
| 2026-04-23 20:14 | 55.86309 | -3.62875 | 3375 ft | 161 kts | 63° |
| 2026-04-23 20:15 | 55.86862 | -3.61219 | 3139 ft | 151 kts | 59° |
| 2026-04-23 20:15 | 55.87388 | -3.59697 | 2929 ft | 138 kts | 60° |
| 2026-04-23 20:15 | 55.87875 | -3.58262 | 2749 ft | 136 kts | 60° |
| 2026-04-23 20:15 | 55.88359 | -3.56837 | 2557 ft | 132 kts | 61° |
| 2026-04-23 20:16 | 55.88828 | -3.55458 | 2393 ft | 130 kts | 61° |
| 2026-04-23 20:16 | 55.89290 | -3.54096 | 2209 ft | 128 kts | 61° |
| 2026-04-23 20:16 | 55.89750 | -3.52736 | 1995 ft | 127 kts | 61° |
| 2026-04-23 20:16 | 55.90214 | -3.51406 | 1843 ft | 127 kts | 60° |
| 2026-04-23 20:17 | 55.90678 | -3.50081 | 1678 ft | 126 kts | 60° |
| 2026-04-23 20:17 | 55.91130 | -3.48754 | 1508 ft | 124 kts | 61° |
| 2026-04-23 20:17 | 55.91572 | -3.47448 | 1394 ft | 123 kts | 60° |
| 2026-04-23 20:17 | 55.92020 | -3.46137 | 1216 ft | 122 kts | 59° |
| 2026-04-23 20:18 | 55.92461 | -3.44842 | 1015 ft | 121 kts | 60° |
| 2026-04-23 20:18 | 55.92885 | -3.43576 | 827 ft | 115 kts | 60° |
| 2026-04-23 20:18 | 55.93294 | -3.42370 | 650 ft | 113 kts | 61° |
| 2026-04-23 20:18 | 55.93697 | -3.41179 | 486 ft | 109 kts | 59° |
| 2026-04-23 20:19 | 55.94080 | -3.39999 | 322 ft | 112 kts | 60° |
| 2026-04-23 20:19 | 55.94470 | -3.38828 | 182 ft | 111 kts | 60° |
| 2026-04-23 20:19 | 55.94846 | -3.37715 | 116 ft | 86 kts | 59° |
| 2026-04-23 20:19 | 55.95037 | -3.37133 | 111 ft | 41 kts | 58° |
| 2026-04-23 20:20 | 55.95181 | -3.36706 | 112 ft | 40 kts | 59° |
| 2026-04-23 20:20 | 55.95244 | -3.36406 | 108 ft | 11 kts | 122° |
| 2026-04-23 20:20 | 55.95190 | -3.36349 | 108 ft | 7 kts | 148° |
| 2026-04-23 20:20 | 55.95185 | -3.36343 | 108 ft | 0 kts | 148° |
| 2026-04-23 20:21 | 55.95177 | -3.36334 | 108 ft | 7 kts | 148° |
| 2026-04-23 20:21 | 55.95115 | -3.36353 | 110 ft | 12 kts | 221° |
| 2026-04-23 20:21 | 55.95066 | -3.36484 | 110 ft | 14 kts | 245° |
| 2026-04-23 20:21 | 55.95005 | -3.36657 | 110 ft | 19 kts | 238° |
| 2026-04-23 20:22 | 55.94914 | -3.36804 | 110 ft | 19 kts | 171° |
| 2026-04-23 20:22 | 55.94794 | -3.36773 | 107 ft | 13 kts | 172° |
| 2026-04-23 20:22 | 55.94707 | -3.36739 | 107 ft | 14 kts | 179° |
| 2026-04-23 20:22 | 55.94600 | -3.36736 | 106 ft | 13 kts | 174° |
| 2026-04-23 20:23 | 55.94575 | -3.36667 | 105 ft | 2 kts | 107° |
| 2026-04-23 20:23 | 55.94574 | -3.36643 | 105 ft | 0 kts | 92° |